createdAt,value
2023-01-27T00:00:35.834Z,32.83
2023-01-27T00:05:38.702Z,35.47
2023-01-27T00:10:41.566Z,34.17
2023-01-27T00:15:45.684Z,37.53
2023-01-27T00:21:06.299Z,34.40
2023-01-27T00:26:10.965Z,32.10
2023-01-27T00:31:35.376Z,30.13
2023-01-27T00:36:39.753Z,30.43
2023-01-27T00:41:42.767Z,31.80
2023-01-27T00:46:47.092Z,29.43
2023-01-27T00:51:50.256Z,31.67
2023-01-27T00:56:53.165Z,29.67
2023-01-27T01:01:57.535Z,29.40
2023-01-27T01:07:00.412Z,33.07
2023-01-27T01:12:03.222Z,33.17
2023-01-27T01:17:07.562Z,28.93
2023-01-27T01:22:10.542Z,33.20
2023-01-27T01:27:14.080Z,30.50
2023-01-27T01:32:18.235Z,29.97
2023-01-27T01:37:21.129Z,30.70
2023-01-27T01:42:23.942Z,30.17
2023-01-27T01:47:28.084Z,33.43
2023-01-27T01:52:31.451Z,29.53
2023-01-27T01:57:37.529Z,29.60
2023-01-27T02:02:44.122Z,27.93
2023-01-27T02:07:52.604Z,32.13
2023-01-27T02:12:55.487Z,29.00
2023-01-27T02:18:01.172Z,23.63
2023-01-27T02:23:16.806Z,30.17
2023-01-27T02:28:21.012Z,29.47
2023-01-27T02:33:24.466Z,25.87
2023-01-27T02:38:30.389Z,32.37
2023-01-27T02:43:34.414Z,30.33
2023-01-27T02:48:37.251Z,32.23
2023-01-27T02:53:40.500Z,33.77
2023-01-27T02:58:44.595Z,39.70
2023-01-27T03:03:47.873Z,33.53
2023-01-27T03:08:50.679Z,37.00
2023-01-27T03:13:54.766Z,38.30
2023-01-27T03:18:57.725Z,35.07
2023-01-27T03:24:00.514Z,34.27
2023-01-27T03:29:18.646Z,38.13
2023-01-27T03:34:21.279Z,38.90
2023-01-27T03:39:41.656Z,38.10
2023-01-27T03:45:03.825Z,37.90
2023-01-27T03:50:11.248Z,37.87
2023-01-27T03:55:14.584Z,30.43
2023-01-27T04:00:21.116Z,34.43
2023-01-27T04:05:41.375Z,35.03
2023-01-27T04:11:04.497Z,37.10
2023-01-27T04:16:09.267Z,33.53
2023-01-27T04:21:13.329Z,35.40
2023-01-27T04:26:16.213Z,26.43
2023-01-27T04:31:20.362Z,35.43
2023-01-27T04:36:23.198Z,44.37
2023-01-27T04:41:25.941Z,34.57
2023-01-27T04:46:30.520Z,32.77
2023-01-27T04:51:34.112Z,35.17
2023-01-27T04:56:38.199Z,35.10
2023-01-27T05:01:42.346Z,36.67
2023-01-27T05:06:45.219Z,32.20
2023-01-27T05:11:48.555Z,35.07
2023-01-27T05:16:57.047Z,33.07
2023-01-27T05:22:21.114Z,32.50
2023-01-27T05:33:24.516Z,32.57
2023-01-27T05:38:27.212Z,28.17
2023-01-27T05:43:30.745Z,32.00
2023-01-27T05:48:35.565Z,28.30
2023-01-27T05:53:38.469Z,28.60
2023-01-27T05:58:41.421Z,28.53
2023-01-27T06:03:46.455Z,30.03
2023-01-27T06:08:49.859Z,32.07
2023-01-27T06:13:53.671Z,31.10
2023-01-27T06:18:58.594Z,31.50
2023-01-27T06:24:01.346Z,28.73
2023-01-27T06:29:04.147Z,32.97
2023-01-27T06:34:08.124Z,28.47
2023-01-27T06:39:11.180Z,30.00
2023-01-27T06:44:13.809Z,26.10
2023-01-27T06:49:17.772Z,28.90
2023-01-27T06:54:20.505Z,27.40
2023-01-27T06:59:23.139Z,24.50
2023-01-27T07:04:27.181Z,18.30
2023-01-27T07:09:32.160Z,20.43
2023-01-27T07:14:38.022Z,18.27
2023-01-27T07:19:42.013Z,20.70
2023-01-27T07:24:44.683Z,22.70
2023-01-27T07:29:47.342Z,21.07
2023-01-27T07:34:51.329Z,21.57
2023-01-27T07:39:54.008Z,19.90
2023-01-27T07:44:56.637Z,22.10
2023-01-27T07:50:00.626Z,23.80
2023-01-27T07:55:03.270Z,21.93
2023-01-27T08:00:06.855Z,24.13
2023-01-27T08:05:11.127Z,21.03
2023-01-27T08:10:14.261Z,19.97
2023-01-27T08:15:19.176Z,19.43
2023-01-27T08:20:23.495Z,23.60
2023-01-27T08:25:26.253Z,24.97
2023-01-27T08:30:28.983Z,25.30
2023-01-27T08:35:32.982Z,29.60
2023-01-27T08:40:35.655Z,26.50
2023-01-27T08:45:39.109Z,19.67
2023-01-27T08:50:44.024Z,24.97
2023-01-27T08:55:46.785Z,21.70
2023-01-27T09:00:49.760Z,21.30
2023-01-27T09:05:53.767Z,19.60
2023-01-27T09:10:56.576Z,23.00
2023-01-27T09:16:01.163Z,21.37
2023-01-27T09:21:06.305Z,16.13
2023-01-27T09:26:08.979Z,19.67
2023-01-27T09:31:11.837Z,18.93
2023-01-27T09:36:21.395Z,17.53
2023-01-27T09:42:00.488Z,19.23
2023-01-27T09:47:29.887Z,21.17
2023-01-27T09:52:48.812Z,20.87
2023-01-27T09:57:58.290Z,17.73
2023-01-27T10:03:27.001Z,23.07
2023-01-27T10:08:49.412Z,20.53
2023-01-27T10:14:08.978Z,21.27
2023-01-27T10:19:26.058Z,21.07
2023-01-27T10:24:41.731Z,23.33
2023-01-27T10:29:47.030Z,23.30
2023-01-27T10:34:56.294Z,24.20
2023-01-27T10:40:06.715Z,26.87
2023-01-27T10:45:25.264Z,25.83
2023-01-27T10:50:31.781Z,23.90
2023-01-27T10:55:41.990Z,26.33
2023-01-27T11:01:19.248Z,24.53
2023-01-27T11:06:15.453Z,25.57
2023-01-27T11:11:40.166Z,34.70
2023-01-27T11:16:47.403Z,26.53
2023-01-27T11:22:06.225Z,23.93
2023-01-27T11:27:19.800Z,23.83
2023-01-27T11:32:34.120Z,27.03
2023-01-27T11:37:39.608Z,24.13
2023-01-27T11:42:44.117Z,27.97
2023-01-27T11:47:49.811Z,30.90
2023-01-27T11:52:58.015Z,30.57
2023-01-27T11:58:12.219Z,34.20
2023-01-27T12:03:19.769Z,36.83
2023-01-27T12:08:39.840Z,29.43
2023-01-27T12:13:50.055Z,32.17
2023-01-27T12:18:56.976Z,38.10
2023-01-27T12:24:00.325Z,35.53
2023-01-27T12:29:07.796Z,32.97
2023-01-27T12:34:23.168Z,33.30
2023-01-27T12:39:32.305Z,36.17
2023-01-27T12:44:50.879Z,38.13
2023-01-27T12:50:13.798Z,38.43
2023-01-27T12:55:29.914Z,39.37
2023-01-27T13:00:34.845Z,47.70
2023-01-27T13:05:39.618Z,39.93
2023-01-27T13:10:51.795Z,37.23
2023-01-27T13:15:57.622Z,38.73
2023-01-27T13:21:08.348Z,41.03
2023-01-27T13:26:16.670Z,33.00
2023-01-27T13:31:30.647Z,30.70
2023-01-27T13:36:40.181Z,29.30
2023-01-27T13:41:49.606Z,32.67
2023-01-27T13:46:55.968Z,27.40
2023-01-27T13:51:58.897Z,26.60
2023-01-27T13:57:22.843Z,29.07
2023-01-27T14:02:43.513Z,30.30
2023-01-27T14:07:53.197Z,26.43
2023-01-27T14:13:16.132Z,26.20
2023-01-27T14:18:25.367Z,29.57
2023-01-27T14:23:45.659Z,23.97
2023-01-27T14:29:08.069Z,25.33
2023-01-27T14:34:26.335Z,23.17
2023-01-27T14:39:36.845Z,24.07
2023-01-27T14:45:06.720Z,21.60
2023-01-27T14:50:24.909Z,23.13
2023-01-27T14:55:37.919Z,23.93
2023-01-27T15:00:49.570Z,20.50
2023-01-27T15:05:58.974Z,20.80
2023-01-27T15:11:18.399Z,21.83
2023-01-27T15:16:48.548Z,19.97
2023-01-27T15:22:12.600Z,21.43
2023-01-27T15:27:15.548Z,23.87
2023-01-27T15:32:36.074Z,24.00
2023-01-27T15:37:57.580Z,23.37
2023-01-27T15:43:05.520Z,28.43
2023-01-27T15:48:12.855Z,26.03
2023-01-27T15:53:24.586Z,24.00
2023-01-27T15:58:34.510Z,23.23
2023-01-27T16:03:43.629Z,24.07
2023-01-27T16:08:52.116Z,23.60
2023-01-27T16:14:26.862Z,26.40
2023-01-27T16:19:33.655Z,25.23
2023-01-27T16:24:45.269Z,22.03
2023-01-27T16:29:53.147Z,22.70
2023-01-27T16:35:00.194Z,25.23
2023-01-27T16:40:09.092Z,18.80
2023-01-27T16:45:20.280Z,19.27
2023-01-27T16:50:34.888Z,21.43
2023-01-27T16:55:40.375Z,15.23
2023-01-27T17:00:44.728Z,16.13
2023-01-27T17:05:52.188Z,21.10
2023-01-27T17:10:58.917Z,20.40
2023-01-27T17:16:05.359Z,26.03
2023-01-27T17:21:08.851Z,23.60
2023-01-27T17:26:16.846Z,23.90
2023-01-27T17:31:24.646Z,23.13
2023-01-27T17:36:27.674Z,26.37
2023-01-27T17:41:36.067Z,28.47
2023-01-27T17:46:39.098Z,24.43
2023-01-27T17:51:45.440Z,25.73
2023-01-27T17:56:51.847Z,28.90
2023-01-27T18:01:56.367Z,27.70
2023-01-27T18:06:59.065Z,23.77
2023-01-27T18:12:07.196Z,27.47
2023-01-27T18:17:22.974Z,28.63
2023-01-27T18:22:27.024Z,31.57
2023-01-27T18:27:34.353Z,29.27
2023-01-27T18:32:40.205Z,31.27
2023-01-27T18:37:53.487Z,31.10
2023-01-27T18:42:58.631Z,33.87
2023-01-27T18:48:01.815Z,32.23
2023-01-27T18:53:13.680Z,34.07
2023-01-27T18:58:17.967Z,39.93
2023-01-27T19:03:23.717Z,38.03
2023-01-27T19:08:26.511Z,36.80
2023-01-27T19:13:30.463Z,38.77
2023-01-27T19:18:36.687Z,40.97
2023-01-27T19:23:44.215Z,41.50
2023-01-27T19:28:51.786Z,38.77
2023-01-27T19:33:56.654Z,44.20
2023-01-27T19:39:07.303Z,43.57
2023-01-27T19:44:11.323Z,41.03
2023-01-27T19:49:17.889Z,49.10
2023-01-27T19:54:20.637Z,45.37
2023-01-27T19:59:25.113Z,42.37
2023-01-27T20:04:27.804Z,47.60
2023-01-27T20:09:30.510Z,40.13
2023-01-27T20:14:34.505Z,47.63
2023-01-27T20:19:37.218Z,44.27
2023-01-27T20:24:39.916Z,50.40
2023-01-27T20:29:44.869Z,44.80
2023-01-27T20:34:47.562Z,45.20
2023-01-27T20:39:50.279Z,46.80
2023-01-27T20:44:54.282Z,48.43
2023-01-27T20:49:56.965Z,53.97
2023-01-27T20:54:59.590Z,51.53
2023-01-27T21:00:03.724Z,50.33
2023-01-27T21:05:07.255Z,50.57
2023-01-27T21:10:11.118Z,53.67
2023-01-27T21:15:16.837Z,50.23
2023-01-27T21:20:19.752Z,50.47
2023-01-27T21:25:22.408Z,47.87
2023-01-27T21:30:28.242Z,49.57
2023-01-27T22:04:11.885Z,38.53
2023-01-27T22:09:20.976Z,37.93
2023-01-27T22:14:23.910Z,32.10
2023-01-27T22:19:29.138Z,36.63
2023-01-27T22:24:31.841Z,36.80
2023-01-27T22:29:34.528Z,37.60
2023-01-27T22:34:38.511Z,36.40
2023-01-27T22:39:43.028Z,37.67
2023-01-27T22:44:49.407Z,42.83
2023-01-27T22:49:53.404Z,38.10
2023-01-27T22:54:56.144Z,33.40
2023-01-27T22:59:59.092Z,35.83
2023-01-27T23:05:03.248Z,39.83
2023-01-27T23:10:07.007Z,39.57
2023-01-27T23:15:10.561Z,40.13
2023-01-27T23:20:15.245Z,43.67
2023-01-27T23:25:18.077Z,43.10
2023-01-27T23:30:20.746Z,41.07
2023-01-27T23:35:24.877Z,38.83
2023-01-27T23:40:27.517Z,35.30
2023-01-27T23:45:30.190Z,34.80
2023-01-27T23:50:34.183Z,31.90
2023-01-27T23:55:36.832Z,31.10
